Time;durP1;ratioP1;P1;durP2;ratioP2;P2;SDS_P1;SDS_P2;PMS_P1;PMS_P2;Temp;Humidity;BMP_temperature;BMP_pressure;BME280_temperature;BME280_humidity;BME280_pressure;Samples;Min_cycle;Max_cycle;Signal;HPM_P1;HPM_P2
2023/03/10 00:01:29;;;;;;;7.53;6.82;;;4.50;99.90;;;;;;5066301;22;20378;-89
2023/03/10 00:04:00;;;;;;;7.10;6.47;;;5.20;99.90;;;;;;5054285;28;20150;-90
2023/03/10 00:06:33;;;;;;;7.07;6.40;;;5.60;99.90;;;;;;5045407;22;20058;-89
2023/03/10 00:09:01;;;;;;;6.85;6.20;;;5.50;99.90;;;;;;5034576;28;20099;-90
2023/03/10 00:11:27;;;;;;;6.03;5.47;;;5.60;99.90;;;;;;5034480;28;20051;-89
2023/03/10 00:13:55;;;;;;;6.88;6.28;;;5.30;99.90;;;;;;5035296;28;20473;-91
2023/03/10 00:16:28;;;;;;;7.75;7.05;;;5.40;99.90;;;;;;5034647;28;20108;-89
2023/03/10 00:18:57;;;;;;;7.93;7.15;;;5.20;99.90;;;;;;5035100;28;20128;-89
2023/03/10 00:21:30;;;;;;;8.82;7.93;;;5.10;99.90;;;;;;5035049;28;20025;-89
2023/03/10 00:23:57;;;;;;;8.77;7.82;;;4.80;99.90;;;;;;5034766;28;20470;-90
2023/03/10 00:26:27;;;;;;;7.82;7.13;;;4.60;99.90;;;;;;5034171;28;20056;-89
2023/03/10 00:28:54;;;;;;;;;;;5.10;99.90;;;;;;5035423;28;20033;-90
2023/03/10 00:31:26;;;;;;;8.43;7.55;;;5.60;99.90;;;;;;5042244;28;19913;-89
2023/03/10 00:34:01;;;;;;;9.13;7.88;;;5.40;99.90;;;;;;5039257;28;20116;-89
2023/03/10 00:36:28;;;;;;;8.88;7.97;;;5.30;99.90;;;;;;5033284;28;20049;-90
2023/03/10 00:38:59;;;;;;;8.70;7.90;;;5.10;99.90;;;;;;5034509;28;20469;-91
2023/03/10 00:44:22;;;;;;;8.25;7.45;;;4.70;99.90;;;;;;5034642;28;20059;-90
2023/03/10 00:46:50;;;;;;;7.38;6.78;;;4.80;99.90;;;;;;5034031;28;20033;-91
2023/03/10 00:49:16;;;;;;;8.50;7.60;;;5.00;99.90;;;;;;5071944;22;20061;-91
2023/03/10 00:54:10;;;;;;;8.52;7.65;;;4.80;99.90;;;;;;5036572;22;20428;-91
2023/03/10 00:56:42;;;;;;;7.93;6.97;;;5.60;99.90;;;;;;5055521;23;20041;-91
2023/03/10 00:59:11;;;;;;;6.65;6.05;;;6.00;99.90;;;;;;5052192;28;20025;-91
2023/03/10 01:01:40;;;;;;;7.93;7.13;;;5.60;99.90;;;;;;5053876;28;20407;-91
2023/03/10 01:04:12;;;;;;;8.30;7.32;;;5.40;99.90;;;;;;5053844;28;20052;-91
2023/03/10 01:06:38;;;;;;;8.20;7.45;;;5.20;99.90;;;;;;5052420;28;20025;-90
2023/03/10 01:09:04;;;;;;;12.55;8.07;;;4.80;99.90;;;;;;5053898;28;20040;-90
2023/03/10 01:11:44;;;;;;;8.35;7.40;;;3.60;99.90;;;;;;5054164;28;20029;-90
2023/03/10 01:14:12;;;;;;;8.27;7.50;;;4.60;99.90;;;;;;5053380;28;20032;-91
2023/03/10 01:16:40;;;;;;;8.23;7.43;;;5.40;99.90;;;;;;5053540;28;20025;-90
2023/03/10 01:20:13;;;;;;;9.43;8.15;;;5.30;99.90;;;;;;5052859;28;20051;-90
2023/03/10 01:22:40;;;;;;;8.90;7.90;;;4.20;99.90;;;;;;5053094;28;20436;-89
2023/03/10 01:25:14;;;;;;;9.48;8.25;;;5.40;99.90;;;;;;5053313;28;20053;-90
2023/03/10 01:27:45;;;;;;;8.65;7.72;;;5.40;99.90;;;;;;5052283;28;20047;-90
2023/03/10 01:30:16;;;;;;;9.15;8.20;;;5.30;99.90;;;;;;5053372;28;20043;-90
2023/03/10 01:32:42;;;;;;;8.70;7.88;;;4.20;99.90;;;;;;5057199;28;20036;-90
2023/03/10 01:35:11;;;;;;;8.98;8.07;;;5.00;99.90;;;;;;5060251;28;20032;-90
2023/03/10 01:37:41;;;;;;;8.70;7.80;;;5.40;99.90;;;;;;5053141;28;20469;-90
2023/03/10 01:40:08;;;;;;;;;;;4.80;99.90;;;;;;5053762;28;20039;-89
2023/03/10 01:42:36;;;;;;;9.00;8.20;;;4.70;99.90;;;;;;5052384;28;19905;-90
2023/03/10 01:45:08;;;;;;;9.25;8.35;;;4.50;99.90;;;;;;5052915;28;20032;-90
2023/03/10 01:47:42;;;;;;;10.15;8.57;;;4.60;99.90;;;;;;5052285;28;20048;-91
2023/03/10 01:50:13;;;;;;;9.98;8.98;;;5.20;99.90;;;;;;5053144;28;20033;-91
2023/03/10 01:52:42;;;;;;;9.80;8.88;;;4.80;99.90;;;;;;5052779;28;20017;-91
2023/03/10 01:55:12;;;;;;;10.02;8.93;;;4.80;99.90;;;;;;5052072;28;20098;-90
2023/03/10 01:58:07;;;;;;;11.10;9.60;;;4.60;99.90;;;;;;5052873;28;20029;-91
2023/03/10 02:00:40;;;;;;;10.48;9.25;;;5.30;99.90;;;;;;5053053;28;20033;-92
2023/03/10 02:03:40;;;;;;;12.65;9.82;;;5.20;99.90;;;;;;5053312;28;20066;-91
2023/03/10 02:09:13;;;;;;;10.05;9.02;;;4.60;99.90;;;;;;5020511;28;20025;-90
2023/03/10 02:11:47;;;;;;;9.77;8.77;;;4.80;99.90;;;;;;5053196;28;20028;-90
2023/03/10 02:14:15;;;;;;;10.45;9.35;;;4.60;99.90;;;;;;5052340;28;20017;-89
2023/03/10 02:16:41;;;;;;;9.60;8.70;;;5.40;99.90;;;;;;5052964;28;20086;-91
2023/03/10 02:20:10;;;;;;;11.07;10.00;;;5.30;99.90;;;;;;5074521;22;20056;-90
2023/03/10 02:22:41;;;;;;;9.13;8.23;;;4.80;99.90;;;;;;5051686;28;20029;-91
2023/03/10 02:25:15;;;;;;;9.70;8.80;;;6.00;99.90;;;;;;5052978;28;20025;-89
2023/03/10 02:27:44;;;;;;;10.23;9.10;;;4.70;99.90;;;;;;5053030;28;20033;-90
2023/03/10 02:30:19;;;;;;;10.30;9.13;;;5.40;99.90;;;;;;5052512;28;20029;-90
2023/03/10 02:32:49;;;;;;;10.75;9.55;;;4.20;99.90;;;;;;5052800;28;20029;-89
2023/03/10 02:35:15;;;;;;;9.13;8.32;;;5.20;99.90;;;;;;5050607;28;20029;-91
2023/03/10 02:37:46;;;;;;;9.20;8.30;;;4.60;99.90;;;;;;5060369;28;20029;-90
2023/03/10 02:40:36;;;;;;;9.85;8.85;;;4.20;99.90;;;;;;5057373;22;20065;-91
2023/03/10 02:43:35;;;;;;;12.30;9.23;;;4.90;99.90;;;;;;5051635;28;20099;-90
2023/03/10 02:46:07;;;;;;;9.90;8.90;;;4.50;99.90;;;;;;5052661;28;20400;-91
2023/03/10 02:48:39;;;;;;;9.65;8.75;;;5.20;99.90;;;;;;5052444;28;20024;-91
2023/03/10 02:51:41;;;;;;;10.05;8.63;;;5.90;99.90;;;;;;5059247;22;20057;-91
2023/03/10 02:54:10;;;;;;;10.73;8.88;;;5.10;99.90;;;;;;5032280;28;20032;-90
2023/03/10 02:56:36;;;;;;;9.35;8.40;;;5.10;99.90;;;;;;5032483;28;20029;-90
2023/03/10 02:59:04;;;;;;;10.07;9.13;;;5.50;99.90;;;;;;5031628;28;20080;-91
2023/03/10 03:01:36;;;;;;;11.60;9.05;;;5.40;99.90;;;;;;5032497;28;20022;-89
2023/03/10 03:04:07;;;;;;;9.93;8.98;;;4.60;99.90;;;;;;5032807;28;20018;-91
2023/03/10 03:06:34;;;;;;;10.25;9.25;;;5.40;99.90;;;;;;5031883;28;20558;-91
2023/03/10 03:09:02;;;;;;;9.32;8.35;;;5.40;99.90;;;;;;5032765;28;20099;-90
2023/03/10 03:11:28;;;;;;;10.25;9.23;;;6.00;99.90;;;;;;5032531;28;20029;-91
2023/03/10 03:14:01;;;;;;;10.13;9.10;;;4.90;99.90;;;;;;5032268;28;20021;-90
2023/03/10 03:16:26;;;;;;;9.55;8.52;;;5.60;99.90;;;;;;5032369;28;20030;-90
2023/03/10 03:18:55;;;;;;;9.70;8.80;;;5.50;99.90;;;;;;5034654;28;20104;-91
2023/03/10 03:21:26;;;;;;;11.13;8.77;;;5.60;99.90;;;;;;5034897;28;20080;-90
2023/03/10 03:23:57;;;;;;;9.48;8.57;;;5.50;99.90;;;;;;5036165;28;20030;-90
2023/03/10 03:26:26;;;;;;;10.35;9.25;;;5.60;99.90;;;;;;5035578;28;20026;-90
2023/03/10 03:28:55;;;;;;;10.10;9.10;;;5.00;99.90;;;;;;5057103;22;20037;-90
2023/03/10 03:33:50;;;;;;;9.52;8.63;;;4.90;99.90;;;;;;5054681;22;20046;-89
2023/03/10 03:36:19;;;;;;;9.30;8.43;;;5.30;99.90;;;;;;5035390;28;20096;-90
2023/03/10 03:38:44;;;;;;;9.48;8.57;;;5.50;99.90;;;;;;5037671;28;20284;-91
2023/03/10 03:41:10;;;;;;;10.73;9.43;;;4.90;99.90;;;;;;5047806;28;20025;-91
2023/03/10 03:43:41;;;;;;;9.88;8.95;;;5.60;99.90;;;;;;5035811;28;20021;-90
2023/03/10 03:46:07;;;;;;;10.90;8.98;;;5.60;99.90;;;;;;5035746;28;20057;-89
2023/03/10 03:48:39;;;;;;;10.15;9.20;;;5.80;99.90;;;;;;5035092;28;20470;-90
2023/03/10 03:51:07;;;;;;;10.05;9.00;;;5.70;99.90;;;;;;5035673;28;20045;-91
2023/03/10 03:53:38;;;;;;;9.73;8.82;;;5.50;99.90;;;;;;5036049;28;20033;-90
2023/03/10 03:56:09;;;;;;;9.20;8.30;;;5.20;99.90;;;;;;5034110;28;20404;-91
2023/03/10 03:58:35;;;;;;;8.60;7.88;;;5.80;99.90;;;;;;5034702;28;20022;-90
2023/03/10 04:01:06;;;;;;;8.70;7.90;;;4.90;99.90;;;;;;5034771;28;20037;-90
2023/03/10 04:06:06;;;;;;;8.80;7.95;;;4.90;99.90;;;;;;5069538;22;20052;-90
2023/03/10 04:11:44;;;;;;;11.20;10.05;;;4.90;99.90;;;;;;5046644;22;20132;-90
2023/03/10 04:14:15;;;;;;;10.27;9.27;;;4.90;99.90;;;;;;5035015;28;20032;-90
2023/03/10 04:16:40;;;;;;;9.68;8.77;;;5.60;99.90;;;;;;5034653;28;20535;-90
2023/03/10 04:19:09;;;;;;;9.57;8.68;;;5.50;99.90;;;;;;5035357;28;20053;-90
2023/03/10 04:21:41;;;;;;;10.00;8.98;;;4.90;99.90;;;;;;5035142;28;20056;-91
2023/03/10 04:24:07;;;;;;;9.13;8.25;;;5.80;99.90;;;;;;5049611;22;20139;-90
2023/03/10 04:29:05;;;;;;;9.05;8.25;;;4.90;99.90;;;;;;5039758;23;20053;-91
2023/03/10 04:31:33;;;;;;;8.75;7.72;;;5.20;99.90;;;;;;5056232;23;20065;-91
2023/03/10 04:33:58;;;;;;;9.18;8.27;;;6.10;99.90;;;;;;5054706;28;20032;-92
2023/03/10 04:36:29;;;;;;;8.45;7.72;;;5.70;99.90;;;;;;5054411;28;20025;-90
2023/03/10 04:39:01;;;;;;;9.23;8.35;;;4.50;99.90;;;;;;5054711;28;20021;-90
2023/03/10 04:41:30;;;;;;;8.43;7.68;;;5.70;99.90;;;;;;5054178;28;20031;-91
2023/03/10 04:44:02;;;;;;;8.65;7.75;;;5.50;99.90;;;;;;5066654;28;20029;-89
2023/03/10 04:46:31;;;;;;;7.90;7.20;;;5.10;99.90;;;;;;5053706;28;20021;-90
2023/03/10 04:49:02;;;;;;;7.30;6.70;;;5.60;99.90;;;;;;5054126;28;20542;-91
2023/03/10 04:51:36;;;;;;;8.15;7.45;;;5.90;99.90;;;;;;5053087;28;20481;-90
2023/03/10 04:54:04;;;;;;;8.70;7.90;;;5.20;99.90;;;;;;5054454;28;20473;-90
2023/03/10 04:56:32;;;;;;;8.85;7.38;;;4.90;99.90;;;;;;5053400;28;20028;-90
2023/03/10 04:59:04;;;;;;;8.82;7.82;;;5.60;99.90;;;;;;5053565;28;20029;-90
2023/03/10 05:01:35;;;;;;;7.57;6.90;;;5.30;99.90;;;;;;5053763;28;20027;-90
2023/03/10 05:04:05;;;;;;;9.48;7.13;;;5.00;99.90;;;;;;5054522;28;20029;-90
2023/03/10 05:06:36;;;;;;;7.13;6.53;;;5.60;99.90;;;;;;5053645;28;20021;-90
2023/03/10 05:09:08;;;;;;;6.97;6.38;;;5.20;99.90;;;;;;5054170;28;20415;-91
2023/03/10 05:11:43;;;;;;;7.57;6.88;;;5.40;99.90;;;;;;5210747;22;20017;-89
2023/03/10 05:14:13;;;;;;;8.73;6.47;;;5.40;99.90;;;;;;5033885;28;20041;-88
2023/03/10 05:16:45;;;;;;;6.97;6.28;;;5.60;99.90;;;;;;5072690;23;20057;-89
2023/03/10 05:19:13;;;;;;;8.05;7.28;;;5.50;99.90;;;;;;5052653;28;20029;-90
2023/03/10 05:21:41;;;;;;;7.47;6.68;;;4.70;99.90;;;;;;5052736;28;20112;-89
2023/03/10 05:24:10;;;;;;;7.75;7.05;;;5.30;99.90;;;;;;5054518;28;20560;-90
2023/03/10 05:26:35;;;;;;;6.82;6.22;;;5.30;99.90;;;;;;5053263;28;20053;-89
2023/03/10 05:29:07;;;;;;;7.28;6.55;;;5.40;99.90;;;;;;5054071;28;20397;-89
2023/03/10 05:31:33;;;;;;;7.55;6.85;;;5.60;99.90;;;;;;5053523;28;20143;-89
2023/03/10 05:34:01;;;;;;;7.32;6.70;;;4.40;99.90;;;;;;5053210;28;20017;-89
2023/03/10 05:36:30;;;;;;;8.82;6.22;;;4.10;99.90;;;;;;5053250;28;20424;-88
2023/03/10 05:38:59;;;;;;;7.28;6.60;;;5.20;99.90;;;;;;5053474;28;20029;-90
2023/03/10 05:41:31;;;;;;;7.15;6.55;;;4.60;99.90;;;;;;5052885;28;20104;-91
2023/03/10 05:43:59;;;;;;;7.32;6.63;;;5.20;99.90;;;;;;5052426;28;20021;-90
2023/03/10 05:46:32;;;;;;;7.45;5.93;;;5.00;99.90;;;;;;5055444;28;20052;-91
2023/03/10 05:49:00;;;;;;;8.18;7.22;;;4.70;99.90;;;;;;5058261;28;20101;-91
2023/03/10 05:51:26;;;;;;;8.02;7.20;;;5.40;99.90;;;;;;5057197;23;20044;-90
2023/03/10 05:53:52;;;;;;;7.28;6.53;;;5.60;99.90;;;;;;5052560;28;20040;-91
2023/03/10 05:56:18;;;;;;;7.32;6.65;;;5.20;99.90;;;;;;5052824;28;20569;-89
2023/03/10 05:58:49;;;;;;;10.23;7.25;;;5.60;99.90;;;;;;5051357;28;20017;-91
2023/03/10 06:01:22;;;;;;;7.32;6.60;;;5.50;99.90;;;;;;5050793;28;20094;-90
2023/03/10 06:03:51;;;;;;;8.57;7.68;;;5.40;99.90;;;;;;5052530;28;20080;-91
2023/03/10 06:06:19;;;;;;;7.22;6.53;;;5.60;99.90;;;;;;5052922;28;20032;-89
2023/03/10 06:08:45;;;;;;;8.75;6.72;;;5.40;99.90;;;;;;5051907;28;20045;-90
2023/03/10 06:11:21;;;;;;;7.72;6.75;;;5.40;99.90;;;;;;5051991;28;20060;-90
2023/03/10 06:13:46;;;;;;;7.47;6.30;;;5.00;99.90;;;;;;5052891;28;20021;-90
2023/03/10 06:16:15;;;;;;;7.03;6.13;;;5.30;99.90;;;;;;5052289;28;20029;-90
2023/03/10 06:18:41;;;;;;;6.57;5.97;;;4.70;99.90;;;;;;5052765;28;20430;-91
2023/03/10 06:21:13;;;;;;;11.05;6.75;;;5.50;99.90;;;;;;5052839;28;20087;-91
2023/03/10 06:23:42;;;;;;;8.82;6.28;;;5.90;99.90;;;;;;5051998;28;20036;-90
2023/03/10 06:26:16;;;;;;;6.93;6.30;;;5.50;99.90;;;;;;5052961;28;20032;-90
2023/03/10 06:28:46;;;;;;;8.18;7.20;;;4.70;99.90;;;;;;5047320;28;20528;-89
2023/03/10 06:31:20;;;;;;;8.85;7.65;;;5.50;99.90;;;;;;5032946;28;20111;-90
2023/03/10 06:33:46;;;;;;;10.50;7.22;;;4.80;99.90;;;;;;5032123;28;20026;-89
2023/03/10 06:36:15;;;;;;;7.28;6.30;;;5.60;99.90;;;;;;5032181;28;20021;-90
2023/03/10 06:38:45;;;;;;;8.13;6.25;;;5.40;99.90;;;;;;5031971;28;20041;-91
2023/03/10 06:41:19;;;;;;;7.05;6.18;;;5.60;99.90;;;;;;5037841;28;20032;-90
2023/03/10 06:43:48;;;;;;;6.88;6.05;;;5.40;99.90;;;;;;5051999;28;20025;-89
2023/03/10 06:46:19;;;;;;;7.57;6.20;;;6.00;99.90;;;;;;5052790;28;20377;-90
2023/03/10 06:48:48;;;;;;;6.38;5.78;;;5.40;99.90;;;;;;5056464;28;20017;-90
2023/03/10 06:51:19;;;;;;;6.85;5.82;;;4.80;99.90;;;;;;5042736;28;20037;-91
2023/03/10 06:53:49;;;;;;;8.80;6.63;;;5.70;99.90;;;;;;5034552;28;20505;-90
2023/03/10 06:56:21;;;;;;;7.80;7.03;;;5.00;99.90;;;;;;5036697;28;20025;-91
2023/03/10 06:58:50;;;;;;;7.10;6.07;;;5.50;99.90;;;;;;5036217;28;20032;-90
2023/03/10 07:01:23;;;;;;;7.10;6.20;;;5.00;99.90;;;;;;5036377;28;20072;-91
2023/03/10 07:03:52;;;;;;;6.97;5.93;;;5.40;99.90;;;;;;5035890;28;20018;-90
2023/03/10 07:06:24;;;;;;;7.55;6.40;;;5.70;99.90;;;;;;5036555;28;20021;-91
2023/03/10 07:08:53;;;;;;;7.07;5.47;;;5.30;99.90;;;;;;5036679;28;20029;-90
2023/03/10 07:11:26;;;;;;;6.40;5.80;;;5.70;99.90;;;;;;5036262;28;20055;-91
2023/03/10 07:13:54;;;;;;;7.85;5.32;;;5.10;99.90;;;;;;5037091;28;20026;-90
2023/03/10 07:16:22;;;;;;;8.23;5.50;;;5.50;99.90;;;;;;5037051;28;20049;-90
2023/03/10 07:18:48;;;;;;;5.65;5.15;;;6.00;99.90;;;;;;5049523;23;20136;-91
2023/03/10 07:21:17;;;;;;;6.75;6.07;;;5.20;99.90;;;;;;5063846;22;20132;-91
2023/03/10 07:24:05;;;;;;;6.00;5.40;;;5.40;99.90;;;;;;5036212;28;20421;-90
2023/03/10 07:26:37;;;;;;;5.95;5.32;;;5.60;99.90;;;;;;5035445;28;20022;-90
2023/03/10 07:29:03;;;;;;;5.78;5.25;;;4.90;99.90;;;;;;5036087;28;20029;-90
2023/03/10 07:31:33;;;;;;;6.70;6.03;;;5.10;99.90;;;;;;5036083;28;20493;-91
2023/03/10 07:34:05;;;;;;;6.43;5.82;;;5.50;99.90;;;;;;5035693;28;20030;-90
2023/03/10 07:36:33;;;;;;;6.45;5.80;;;5.90;99.90;;;;;;5035869;28;20060;-90
2023/03/10 07:39:05;;;;;;;5.82;5.00;;;5.60;99.90;;;;;;5035512;28;20034;-90
2023/03/10 07:41:33;;;;;;;5.57;5.07;;;4.90;99.90;;;;;;5035603;28;20031;-91
2023/03/10 07:44:08;;;;;;;6.43;5.15;;;5.30;99.90;;;;;;5036131;28;20029;-90
2023/03/10 07:46:33;;;;;;;6.65;5.25;;;4.40;99.90;;;;;;5035133;28;20017;-90
2023/03/10 07:49:03;;;;;;;5.75;5.25;;;5.60;99.90;;;;;;5036036;28;20026;-91
2023/03/10 07:51:29;;;;;;;7.50;5.55;;;5.80;99.90;;;;;;5041388;28;20034;-90
2023/03/10 07:53:58;;;;;;;7.35;5.80;;;5.70;99.90;;;;;;5047943;28;20022;-90
2023/03/10 07:58:55;;;;;;;6.13;5.53;;;5.10;99.90;;;;;;5072377;22;20049;-91
2023/03/10 08:03:57;;;;;;;6.28;5.68;;;5.10;99.90;;;;;;5079322;23;20071;-91
2023/03/10 08:06:35;;;;;;;6.13;5.45;;;5.70;99.90;;;;;;5045824;22;20107;-90
2023/03/10 08:09:04;;;;;;;5.35;4.85;;;5.60;99.90;;;;;;5035018;28;20032;-91
2023/03/10 08:11:35;;;;;;;6.07;5.50;;;5.10;99.90;;;;;;5033029;28;20037;-91
2023/03/10 08:19:03;;;;;;;5.30;4.80;;;5.10;99.90;;;;;;5062991;22;20052;-90
2023/03/10 08:23:56;;;;;;;5.60;5.10;;;5.10;99.90;;;;;;5067449;23;20057;-87
2023/03/10 08:26:28;;;;;;;4.93;4.43;;;5.90;99.90;;;;;;5054422;28;20040;-91
2023/03/10 08:28:59;;;;;;;5.57;4.57;;;5.80;99.90;;;;;;5054584;28;20025;-91
2023/03/10 08:31:24;;;;;;;5.75;3.92;;;5.60;99.90;;;;;;5054270;28;20040;-90
2023/03/10 08:33:56;;;;;;;5.10;4.68;;;5.80;99.90;;;;;;5055100;28;20323;-91
2023/03/10 08:36:25;;;;;;;5.25;4.65;;;5.80;99.90;;;;;;5054299;28;20017;-90
2023/03/10 08:38:53;;;;;;;5.63;4.65;;;5.50;99.90;;;;;;5055043;28;20025;-89
2023/03/10 08:44:49;;;;;;;8.68;4.45;;;5.10;99.90;;;;;;5055943;28;20081;-91
2023/03/10 08:47:55;;;;;;;4.90;4.05;;;5.00;99.90;;;;;;5054149;28;20063;-93
2023/03/10 08:50:57;;;;;;;4.40;4.00;;;4.50;99.90;;;;;;5053107;28;20106;-91
2023/03/10 08:58:33;;;;;;;;;;;;;;;;;;;;;
2023/03/10 09:27:53;;;;;;;2.90;2.60;;;4.90;99.90;;;;;;1650046;23;20029;31
2023/03/10 09:30:21;;;;;;;4.55;2.50;;;5.70;99.90;;;;;;4960042;28;20062;-91
2023/03/10 09:32:54;;;;;;;3.25;2.78;;;5.50;99.90;;;;;;4956739;29;20102;-91
2023/03/10 09:35:23;;;;;;;3.30;2.47;;;5.50;99.90;;;;;;4966247;28;20460;-91
2023/03/10 09:37:54;;;;;;;2.95;2.40;;;5.20;99.90;;;;;;4961634;28;20417;-90
2023/03/10 09:40:24;;;;;;;2.58;2.38;;;5.70;99.90;;;;;;4964135;28;20117;-89
2023/03/10 09:43:21;;;;;;;2.20;2.00;;;5.60;99.90;;;;;;4958303;28;20031;-90
2023/03/10 09:46:31;;;;;;;2.85;2.35;;;4.90;99.90;;;;;;4942372;29;20036;-91
2023/03/10 09:49:03;;;;;;;2.92;2.30;;;4.90;99.90;;;;;;4965348;28;20086;-91
2023/03/10 09:51:31;;;;;;;3.25;2.17;;;5.70;99.90;;;;;;4962817;28;20049;-90
2023/03/10 09:54:32;;;;;;;2.00;1.90;;;5.70;99.90;;;;;;4965440;28;20030;-91
2023/03/10 09:57:13;;;;;;;2.72;2.22;;;5.70;99.90;;;;;;4971782;28;20102;-91
2023/03/10 09:59:40;;;;;;;2.10;1.88;;;5.90;99.90;;;;;;4992962;28;20058;-90
2023/03/10 10:02:44;;;;;;;2.22;2.03;;;5.90;99.90;;;;;;4976521;28;20031;-91
2023/03/10 10:05:36;;;;;;;2.28;2.08;;;5.00;99.90;;;;;;4974972;28;20018;-89
2023/03/10 10:08:39;;;;;;;1.65;1.55;;;4.90;99.90;;;;;;4971596;28;20030;-89
2023/03/10 10:11:14;;;;;;;2.90;1.83;;;4.40;99.90;;;;;;4976038;28;20066;-92
2023/03/10 10:13:46;;;;;;;3.85;1.85;;;5.50;99.90;;;;;;4971934;28;20034;-94
2023/03/10 10:20:15;;;;;;;1.95;1.75;;;4.90;99.90;;;;;;5047726;23;20533;-90
2023/03/10 10:22:43;;;;;;;2.20;2.00;;;4.40;99.90;;;;;;4994676;28;20118;-90
2023/03/10 10:25:43;;;;;;;1.67;1.52;;;5.70;99.90;;;;;;4994455;28;20034;-90
2023/03/10 10:28:47;;;;;;;2.72;2.17;;;4.80;99.90;;;;;;4997101;28;20030;-91
2023/03/10 10:31:45;;;;;;;1.88;1.77;;;4.80;99.90;;;;;;4997027;28;20078;-94
2023/03/10 10:34:44;;;;;;;2.00;1.80;;;4.40;99.90;;;;;;4997454;28;20041;-90
2023/03/10 10:37:44;;;;;;;1.95;1.73;;;4.80;99.90;;;;;;4981265;28;20034;-90
2023/03/10 10:40:41;;;;;;;1.75;1.65;;;4.80;99.90;;;;;;4994844;28;20038;-89
2023/03/10 10:43:20;;;;;;;1.80;1.70;;;5.60;99.90;;;;;;4993889;28;20053;-88
2023/03/10 10:49:19;;;;;;;2.45;2.25;;;5.50;99.90;;;;;;4997109;28;20089;-92
2023/03/10 11:01:21;;;;;;;1.77;1.60;;;4.60;99.90;;;;;;5019513;23;20123;-89
2023/03/10 11:03:47;;;;;;;1.60;1.50;;;5.40;99.90;;;;;;5006648;28;20030;-88
2023/03/10 11:06:23;;;;;;;1.85;1.75;;;5.10;99.90;;;;;;5005878;28;20113;-88
2023/03/10 11:09:22;;;;;;;1.45;1.35;;;4.60;99.90;;;;;;5008717;28;20019;-88
2023/03/10 11:12:25;;;;;;;1.58;1.48;;;4.60;99.90;;;;;;5008686;28;20069;-88
2023/03/10 11:18:27;;;;;;;1.35;1.25;;;4.30;99.90;;;;;;5006841;28;20037;-90
2023/03/10 11:27:07;;;;;;;1.60;1.50;;;4.60;99.90;;;;;;5484196;23;20058;-92
2023/03/10 11:30:05;;;;;;;2.38;1.67;;;5.20;99.90;;;;;;4999689;28;20099;-90
2023/03/10 11:43:37;;;;;;;1.90;1.40;;;4.50;99.90;;;;;;4999824;28;20076;-89
2023/03/10 11:46:50;;;;;;;;;;;;;;;;;;;;;
2023/03/10 11:53:52;;;;;;;;;;;;;;;;;;;;;
2023/03/10 12:00:34;;;;;;;2.47;2.28;;;4.10;99.90;;;;;;4915361;29;20437;-90
2023/03/10 12:11:18;;;;;;;2.80;2.50;;;4.70;99.90;;;;;;5006447;23;20137;-89
2023/03/10 12:13:59;;;;;;;2.40;2.20;;;4.50;99.90;;;;;;5013438;28;20044;-87
2023/03/10 12:16:58;;;;;;;2.95;2.22;;;4.70;99.90;;;;;;5020178;23;20162;-88
2023/03/10 12:22:58;;;;;;;2.38;2.17;;;4.60;99.90;;;;;;5044801;23;20128;-90
2023/03/10 12:25:34;;;;;;;3.97;2.47;;;4.50;99.90;;;;;;5034376;23;20062;-89
2023/03/10 13:25:18;;;;;;;3.42;3.13;;;3.90;99.90;;;;;;4969012;28;20479;-89
2023/03/10 13:27:47;;;;;;;4.75;4.30;;;3.80;99.90;;;;;;4933708;29;20189;-89
2023/03/10 13:33:26;;;;;;;4.35;3.95;;;3.60;99.90;;;;;;4979267;23;20056;-89
2023/03/10 13:39:51;;;;;;;5.50;4.50;;;3.50;99.90;;;;;;5224372;23;20715;-92
2023/03/10 13:42:25;;;;;;;5.75;5.15;;;3.40;99.90;;;;;;5026984;23;20025;-86
2023/03/10 13:47:30;;;;;;;6.15;5.55;;;3.30;99.90;;;;;;5027940;23;20489;-89
2023/03/10 13:50:24;;;;;;;8.05;6.25;;;3.10;99.90;;;;;;4988899;23;20143;-90
2023/03/10 14:41:59;;;;;;;15.73;7.45;;;1.60;99.90;;;;;;5021482;23;20065;-89
2023/03/10 15:18:53;;;;;;;;;;;;;;;;;;;;;
2023/03/10 15:23:45;;;;;;;16.77;8.45;;;1.30;99.90;;;;;;5176693;23;20150;-90
2023/03/10 15:31:40;;;;;;;22.67;9.57;;;1.30;99.90;;;;;;5008880;23;20054;-90
2023/03/10 15:34:11;;;;;;;23.83;8.05;;;0.50;99.90;;;;;;4949987;29;20094;-88
2023/03/10 15:36:37;;;;;;;17.65;7.78;;;1.50;99.90;;;;;;4957155;29;20038;-88
2023/03/10 15:39:04;;;;;;;22.17;8.75;;;2.00;99.90;;;;;;4956709;29;20027;-88
2023/03/10 15:41:36;;;;;;;20.75;8.70;;;1.90;99.90;;;;;;4956934;29;20027;-89
2023/03/10 15:44:38;;;;;;;19.85;7.60;;;1.50;99.90;;;;;;4957283;29;20026;-89
2023/03/10 15:58:49;;;;;;;15.38;8.23;;;1.20;99.90;;;;;;5018435;23;20077;-87
2023/03/10 16:03:54;;;;;;;7.57;5.63;;;1.20;99.90;;;;;;5012099;23;20088;-87
2023/03/10 16:50:24;;;;;;;1.90;1.00;;;1.70;99.90;;;;;;4959622;28;20058;-87
2023/03/10 16:52:58;;;;;;;1.60;0.85;;;2.60;99.90;;;;;;4960276;29;20023;-88
2023/03/10 16:55:26;;;;;;;2.80;0.82;;;2.30;99.90;;;;;;4959134;29;20530;-88
2023/03/10 16:57:52;;;;;;;9.55;1.00;;;1.50;99.90;;;;;;4957031;29;20020;-88
2023/03/10 17:03:20;;;;;;;5.00;1.20;;;1.60;99.90;;;;;;5000288;23;20084;-88
2023/03/10 17:05:45;;;;;;;11.45;1.30;;;2.10;99.90;;;;;;4994167;28;20049;-88
2023/03/10 17:08:23;;;;;;;10.35;1.05;;;2.60;99.90;;;;;;5013070;28;20470;-87
2023/03/10 17:10:56;;;;;;;6.43;0.88;;;2.60;99.90;;;;;;5012924;28;20474;-87
2023/03/10 17:13:33;;;;;;;6.38;0.88;;;2.90;99.90;;;;;;5013199;28;20022;-87
2023/03/10 17:23:51;;;;;;;3.25;0.70;;;2.10;99.90;;;;;;5015339;23;20136;-88
2023/03/10 17:26:20;;;;;;;5.75;0.60;;;2.90;99.90;;;;;;4994270;28;20503;-87
2023/03/10 17:28:59;;;;;;;5.78;1.00;;;2.90;99.90;;;;;;4993694;28;20026;-88
2023/03/10 17:31:30;;;;;;;10.20;0.70;;;2.80;99.90;;;;;;4993157;28;20038;-88
2023/03/10 17:34:01;;;;;;;8.70;1.08;;;3.00;99.90;;;;;;4993885;28;20106;-87
2023/03/10 17:36:29;;;;;;;;;;;2.10;99.90;;;;;;4993065;28;20025;-87
2023/03/10 17:39:00;;;;;;;1.55;0.63;;;1.90;99.90;;;;;;4991174;28;20023;-87
2023/03/10 17:41:30;;;;;;;4.07;1.73;;;2.50;99.90;;;;;;4992635;28;20026;-88
2023/03/10 17:45:03;;;;;;;2.65;0.65;;;1.90;99.90;;;;;;4991752;28;20023;-87
2023/03/10 17:51:06;;;;;;;5.88;1.40;;;1.60;99.90;;;;;;4994697;28;20084;-90
2023/03/10 17:57:11;;;;;;;7.43;1.40;;;2.00;99.90;;;;;;5310689;23;20514;-89
2023/03/10 18:09:42;;;;;;;6.72;1.85;;;3.10;99.90;;;;;;4915317;29;20039;-91
2023/03/10 18:50:54;;;;;;;13.20;1.60;;;2.30;99.90;;;;;;1675435;23;20897;-87
2023/03/10 18:53:20;;;;;;;7.38;1.50;;;2.20;99.90;;;;;;5008733;28;20034;-89
2023/03/10 18:56:01;;;;;;;5.72;1.08;;;2.40;99.90;;;;;;5011255;28;20033;-89
2023/03/10 18:58:31;;;;;;;5.85;1.00;;;2.30;99.90;;;;;;5014179;28;20048;-89
2023/03/10 19:01:32;;;;;;;;;;;3.50;99.90;;;;;;5014961;28;20108;-90
2023/03/10 19:12:27;;;;;;;;;;;;;;;;;;;;;
2023/03/10 19:15:17;;;;;;;11.23;1.85;;;2.10;99.90;;;;;;4984303;23;19921;-89
2023/03/10 19:17:48;;;;;;;11.38;3.22;;;1.60;99.90;;;;;;5034428;23;21184;-89
2023/03/10 19:20:49;;;;;;;9.73;2.35;;;3.10;99.90;;;;;;4996501;28;20109;-90
2023/03/10 19:23:21;;;;;;;;;;;2.30;99.90;;;;;;4944481;29;20035;-89
2023/03/10 19:25:50;;;;;;;12.93;1.63;;;2.10;99.90;;;;;;4955206;29;19926;-91
2023/03/10 19:28:19;;;;;;;14.90;1.40;;;3.20;99.90;;;;;;4996319;23;20418;-88
2023/03/10 19:30:53;;;;;;;8.90;1.48;;;2.30;99.90;;;;;;5009323;28;20547;-90
2023/03/10 19:33:22;;;;;;;10.27;1.58;;;2.30;99.90;;;;;;5009183;28;20038;-89
2023/03/10 19:36:22;;;;;;;12.77;1.25;;;2.40;99.90;;;;;;4998143;28;20018;-89
2023/03/10 19:38:51;;;;;;;6.85;1.15;;;2.50;99.90;;;;;;4995535;28;20033;-88
2023/03/10 19:41:29;;;;;;;16.58;1.88;;;2.80;99.90;;;;;;4995892;28;20031;-89
2023/03/10 19:43:57;;;;;;;9.32;2.67;;;3.20;99.90;;;;;;4995293;28;20026;-89
2023/03/10 19:46:29;;;;;;;6.13;1.55;;;3.20;99.90;;;;;;4996115;28;20032;-89
2023/03/10 19:48:58;;;;;;;11.75;2.22;;;3.00;99.90;;;;;;4999133;28;20033;-88
2023/03/10 19:51:32;;;;;;;11.77;2.53;;;3.40;99.90;;;;;;4988758;28;20482;-91
2023/03/10 19:54:04;;;;;;;11.73;1.80;;;3.30;99.90;;;;;;4986017;28;20030;-90
2023/03/10 19:56:32;;;;;;;10.77;2.20;;;3.50;99.90;;;;;;5000613;28;20033;-89
2023/03/10 19:59:13;;;;;;;11.85;2.85;;;3.30;99.90;;;;;;4994489;28;20030;-90
2023/03/10 20:01:47;;;;;;;11.73;2.65;;;3.20;99.90;;;;;;4996127;28;20022;-89
2023/03/10 20:04:25;;;;;;;13.23;2.05;;;3.30;99.90;;;;;;5287048;23;20075;-88
2023/03/10 20:07:00;;;;;;;8.88;3.03;;;3.40;99.90;;;;;;4995230;28;20022;-89
2023/03/10 20:09:28;;;;;;;11.60;2.40;;;3.40;99.90;;;;;;4993193;28;20022;-88
2023/03/10 20:12:03;;;;;;;4.25;1.45;;;3.60;99.90;;;;;;4992539;28;20080;-91
2023/03/10 20:14:31;;;;;;;10.07;1.60;;;2.80;99.90;;;;;;4989364;28;20019;-90
2023/03/10 20:17:02;;;;;;;9.77;1.40;;;3.60;99.90;;;;;;4986468;28;20026;-90
2023/03/10 20:19:39;;;;;;;11.90;1.33;;;3.50;99.90;;;;;;4992844;28;20034;-90
2023/03/10 20:22:08;;;;;;;8.02;1.52;;;3.20;99.90;;;;;;4992897;28;20030;-90
2023/03/10 20:24:37;;;;;;;10.57;1.80;;;3.60;99.90;;;;;;4993803;28;20022;-90
2023/03/10 20:27:08;;;;;;;9.95;1.98;;;2.90;99.90;;;;;;4994655;28;20026;-90
2023/03/10 20:29:40;;;;;;;12.50;1.65;;;3.50;99.90;;;;;;4993651;28;20423;-90
2023/03/10 20:32:20;;;;;;;11.55;2.05;;;3.60;99.90;;;;;;4992200;28;20402;-90